Time;durP1;ratioP1;P1;durP2;ratioP2;P2;SDS_P1;SDS_P2;PMS_P1;PMS_P2;Temp;Humidity;BMP_temperature;BMP_pressure;BME280_temperature;BME280_humidity;BME280_pressure;Samples;Min_cycle;Max_cycle;Signal;HPM_P1;HPM_P2
2022/05/20 00:00:00;;;;;;;7.12;2.35;;;;;;;16.51;45.47;98826.31;5437464;26;20061;-74
2022/05/20 00:02:26;;;;;;;5.70;1.90;;;;;;;16.34;46.03;98820.25;5437031;26;20054;-74
2022/05/20 00:04:54;;;;;;;5.78;2.10;;;;;;;16.31;46.43;98822.19;5437138;26;20042;-74
2022/05/20 00:07:20;;;;;;;7.05;1.85;;;;;;;16.16;46.88;98818.63;5417136;26;20095;-74
2022/05/20 00:09:47;;;;;;;5.65;2.00;;;;;;;16.01;47.41;98815.09;5437130;26;20063;-74
2022/05/20 00:12:14;;;;;;;4.70;1.90;;;;;;;15.94;47.91;98823.28;5437271;26;20110;-74
2022/05/20 00:14:41;;;;;;;5.90;2.15;;;;;;;15.51;49.34;98821.09;5437337;26;20106;-74
2022/05/20 00:17:08;;;;;;;4.32;1.98;;;;;;;15.32;50.05;98816.00;5436957;26;20058;-75
2022/05/20 00:19:35;;;;;;;8.40;2.42;;;;;;;15.17;50.64;98816.72;5417206;26;20099;-74
2022/05/20 00:22:02;;;;;;;7.30;2.75;;;;;;;14.96;51.38;98817.78;5436933;26;20102;-74
2022/05/20 00:24:29;;;;;;;7.12;2.37;;;;;;;14.93;51.80;98818.78;5411277;26;147560;-74
2022/05/20 00:26:57;;;;;;;6.00;2.08;;;;;;;14.91;51.71;98814.56;5437382;26;20505;-74
2022/05/20 00:29:24;;;;;;;7.15;1.85;;;;;;;15.01;51.62;98810.63;5436596;26;20082;-74
2022/05/20 00:31:51;;;;;;;4.30;2.08;;;;;;;15.07;51.56;98815.50;5437419;26;20062;-74
2022/05/20 00:34:19;;;;;;;6.10;1.90;;;;;;;15.03;51.75;98807.00;5416847;26;20087;-74
2022/05/20 00:36:46;;;;;;;5.97;2.10;;;;;;;14.38;53.71;98810.94;5436947;26;20059;-74
2022/05/20 00:39:13;;;;;;;8.00;2.40;;;;;;;14.11;55.07;98814.78;5437000;26;20406;-74
2022/05/20 00:41:40;;;;;;;6.40;2.10;;;;;;;14.60;53.66;98813.41;5437428;26;20098;-74
2022/05/20 00:44:07;;;;;;;5.03;2.00;;;;;;;14.52;53.82;98818.13;5436946;26;20582;-74
2022/05/20 00:46:34;;;;;;;6.40;2.10;;;;;;;14.58;53.23;98815.25;5416884;26;20126;-74
2022/05/20 00:49:07;;;;;;;6.65;2.10;;;;;;;14.94;52.10;98814.41;5437163;26;20111;-74
2022/05/20 00:51:46;;;;;;;6.37;2.30;;;;;;;14.96;52.05;98813.41;5436943;26;20087;-74
2022/05/20 00:54:23;;;;;;;7.60;2.10;;;;;;;14.98;51.95;98818.53;5416868;26;20047;-74
2022/05/20 00:56:55;;;;;;;4.70;1.80;;;;;;;14.92;51.89;98813.66;5437453;26;20110;-74
2022/05/20 00:59:26;;;;;;;7.00;1.90;;;;;;;14.43;53.05;98819.34;5437095;26;20468;-74
2022/05/20 01:01:55;;;;;;;6.53;2.30;;;;;;;14.58;52.23;98814.41;5417054;26;20095;-74
2022/05/20 01:04:23;;;;;;;4.97;2.12;;;;;;;14.89;51.18;98806.84;5416450;26;20043;-74
2022/05/20 01:06:51;;;;;;;6.43;2.28;;;;;;;14.89;50.39;98812.03;5437269;26;20408;-74
2022/05/20 01:09:17;;;;;;;7.57;2.53;;;;;;;14.57;51.14;98805.78;5416638;26;20082;-74
2022/05/20 01:11:45;;;;;;;5.47;2.10;;;;;;;15.20;49.76;98795.78;5436839;26;20424;-74
2022/05/20 01:14:23;;;;;;;6.22;2.00;;;;;;;14.90;50.35;98798.13;5437161;26;20118;-74
2022/05/20 01:16:50;;;;;;;4.95;2.00;;;;;;;14.73;51.00;98795.50;5416859;26;20133;-74
2022/05/20 01:19:29;;;;;;;5.22;2.03;;;;;;;14.81;50.49;98795.13;5416137;26;20086;-74
2022/05/20 01:21:56;;;;;;;5.43;2.10;;;;;;;15.13;49.88;98784.00;5416916;26;20063;-74
2022/05/20 01:24:23;;;;;;;5.10;2.37;;;;;;;15.23;49.44;98780.03;5437075;26;20063;-74
2022/05/20 01:26:50;;;;;;;5.62;2.10;;;;;;;15.42;48.40;98776.50;5436890;26;20130;-74
2022/05/20 01:29:17;;;;;;;5.10;2.00;;;;;;;15.49;48.15;98772.69;5436723;26;20073;-74
2022/05/20 01:31:44;;;;;;;4.50;2.12;;;;;;;15.39;48.44;98771.47;5437106;26;20440;-74
2022/05/20 01:34:11;;;;;;;8.15;2.92;;;;;;;15.09;49.45;98764.28;5436771;26;20103;-74
2022/05/20 01:36:38;;;;;;;4.62;1.80;;;;;;;14.98;49.94;98766.56;5437112;26;20115;-74
2022/05/20 01:39:05;;;;;;;6.90;2.30;;;;;;;15.02;49.90;98766.34;5436485;26;20069;-74
2022/05/20 01:41:50;;;;;;;5.37;2.08;;;;;;;14.81;51.60;98771.75;5437205;26;20142;-74
2022/05/20 01:44:37;;;;;;;4.15;1.83;;;;;;;14.81;51.99;98761.38;5416745;26;20122;-74
2022/05/20 01:47:07;;;;;;;7.93;2.30;;;;;;;14.66;52.21;98758.56;5436818;26;20131;-74
2022/05/20 01:49:43;;;;;;;8.45;2.12;;;;;;;14.36;53.08;98754.81;5437105;26;20067;-74
2022/05/20 01:52:27;;;;;;;6.32;2.40;;;;;;;14.18;53.41;98757.34;5437132;26;20046;-74
2022/05/20 01:55:00;;;;;;;7.05;2.25;;;;;;;13.96;54.41;98756.66;5416483;26;20105;-74
2022/05/20 01:57:39;;;;;;;6.70;2.10;;;;;;;13.97;54.51;98767.88;5437035;26;20119;-74
2022/05/20 02:00:11;;;;;;;5.53;2.78;;;;;;;13.41;56.80;98759.09;5416366;26;20111;-74
2022/05/20 02:03:27;;;;;;;5.50;2.10;;;;;;;13.50;56.30;98753.47;5416612;26;20051;-74
2022/05/20 02:06:02;;;;;;;6.87;2.58;;;;;;;13.37;56.38;98748.88;5417560;26;20042;-74
2022/05/20 02:08:48;;;;;;;5.90;2.25;;;;;;;13.65;55.67;98745.94;5416202;26;20211;-74
2022/05/20 02:11:27;;;;;;;9.38;2.62;;;;;;;13.55;55.25;98743.75;5437050;26;20054;-74
2022/05/20 02:14:08;;;;;;;10.45;2.45;;;;;;;13.63;54.86;98740.00;5416556;26;20112;-74
2022/05/20 02:16:38;;;;;;;6.03;1.98;;;;;;;13.78;54.79;98744.50;5416663;26;20133;-74
2022/05/20 02:19:18;;;;;;;5.95;1.92;;;;;;;13.68;55.12;98746.66;5416444;26;20457;-74
2022/05/20 02:21:48;;;;;;;6.82;1.87;;;;;;;14.03;53.58;98750.25;5416336;26;20465;-74
2022/05/20 02:24:20;;;;;;;5.47;2.10;;;;;;;14.01;54.21;98754.66;5436922;26;20051;-74
2022/05/20 02:26:51;;;;;;;5.85;2.10;;;;;;;13.62;55.30;98731.38;5416613;26;20094;-74
2022/05/20 02:29:23;;;;;;;4.32;2.00;;;;;;;14.22;52.49;98732.09;5415229;26;20140;-74
2022/05/20 02:32:06;;;;;;;7.80;2.47;;;;;;;14.27;51.75;98740.50;5416742;26;20110;-74
2022/05/20 02:34:34;;;;;;;9.57;1.95;;;;;;;14.36;52.05;98749.63;5416462;26;20253;-74
2022/05/20 02:37:21;;;;;;;6.50;2.45;;;;;;;13.29;57.08;98744.91;5436448;26;20055;-74
2022/05/20 02:39:48;;;;;;;5.57;2.25;;;;;;;13.28;57.83;98742.34;5436538;26;20059;-74
2022/05/20 02:42:15;;;;;;;6.65;2.55;;;;;;;12.90;59.53;98742.19;5436522;26;20114;-74
2022/05/20 02:44:42;;;;;;;5.93;2.00;;;;;;;12.26;60.27;98739.56;5436665;26;20082;-74
2022/05/20 02:47:10;;;;;;;6.68;2.25;;;;;;;11.64;63.12;98740.12;5416362;26;20051;-74
2022/05/20 02:49:37;;;;;;;7.07;2.37;;;;;;;12.57;60.20;98754.75;5436221;26;20527;-74
2022/05/20 02:52:05;;;;;;;5.35;2.20;;;;;;;12.83;59.23;98745.91;5436722;26;20067;-74
2022/05/20 02:54:32;;;;;;;7.57;2.20;;;;;;;13.24;57.93;98759.78;5436551;26;20111;-74
2022/05/20 02:56:59;;;;;;;8.40;2.20;;;;;;;13.38;56.33;98768.72;5436172;26;20355;-74
2022/05/20 03:04:57;;;;;;;5.95;1.85;;;;;;;13.97;54.04;98779.09;5436210;26;20047;-74
2022/05/20 03:07:24;;;;;;;7.85;2.10;;;;;;;14.02;53.80;98777.09;5436572;26;20053;-74
2022/05/20 03:09:52;;;;;;;4.90;2.00;;;;;;;14.05;53.73;98776.16;5436568;26;20063;-74
2022/05/20 03:12:19;;;;;;;6.40;2.25;;;;;;;14.15;53.21;98772.22;5436139;26;20107;-74
2022/05/20 03:14:46;;;;;;;5.20;2.25;;;;;;;14.10;52.79;98769.81;5436374;26;20110;-74
2022/05/20 03:17:13;;;;;;;6.57;2.10;;;;;;;13.74;54.04;98761.13;5416081;26;20055;-74
2022/05/20 03:19:40;;;;;;;5.43;2.22;;;;;;;13.70;53.85;98767.31;5415563;26;20063;-74
2022/05/20 03:22:07;;;;;;;5.82;2.17;;;;;;;14.26;52.29;98769.97;5436387;26;20513;-74
2022/05/20 03:24:34;;;;;;;7.55;2.25;;;;;;;14.68;50.73;98766.31;5435963;26;20065;-74
2022/05/20 03:27:03;;;;;;;5.40;2.00;;;;;;;14.50;51.04;98762.84;5436498;26;20099;-74
2022/05/20 03:29:32;;;;;;;5.53;2.00;;;;;;;14.74;50.03;98753.84;5435953;26;20440;-74
2022/05/20 03:31:59;;;;;;;4.37;2.10;;;;;;;14.82;49.83;98750.91;5436014;26;20055;-74
2022/05/20 03:34:26;;;;;;;5.50;2.10;;;;;;;14.96;50.77;98745.00;5436061;26;20115;-74
2022/05/20 03:36:53;;;;;;;5.55;2.08;;;;;;;14.87;50.91;98740.25;5416055;26;20047;-74
2022/05/20 03:39:22;;;;;;;4.75;2.08;;;;;;;15.06;50.07;98725.44;5435702;26;20077;-74
2022/05/20 03:41:49;;;;;;;5.87;2.10;;;;;;;15.12;50.13;98732.94;5417266;26;20118;-74
2022/05/20 03:44:17;;;;;;;6.30;2.20;;;;;;;15.34;49.85;98727.50;5417038;26;20071;-75
2022/05/20 03:46:49;;;;;;;10.00;2.10;;;;;;;15.79;48.71;98729.50;5416603;26;20102;-74
2022/05/20 03:49:17;;;;;;;6.15;2.00;;;;;;;15.89;47.56;98735.06;5417114;26;20126;-74
2022/05/20 03:51:46;;;;;;;6.10;2.22;;;;;;;16.16;46.38;98748.31;5437814;26;20058;-75
2022/05/20 03:54:15;;;;;;;7.47;2.30;;;;;;;16.02;47.06;98750.84;5437097;26;20051;-74
2022/05/20 03:56:42;;;;;;;5.22;1.77;;;;;;;16.07;47.48;98751.47;5417244;26;20445;-74
2022/05/20 03:59:09;;;;;;;7.22;2.12;;;;;;;15.94;48.49;98750.41;5437122;26;20111;-74
2022/05/20 04:04:28;;;;;;;6.95;2.40;;;;;;;15.72;49.73;98748.94;5437488;26;20388;-73
2022/05/20 04:06:55;;;;;;;6.85;2.10;;;;;;;15.14;52.42;98749.31;5437111;26;20110;-74
2022/05/20 04:09:23;;;;;;;8.07;2.28;;;;;;;15.41;52.44;98744.44;5437113;26;20393;-77
2022/05/20 04:11:54;;;;;;;6.80;2.30;;;;;;;15.67;52.00;98750.13;5437493;26;20118;-77
2022/05/20 04:14:23;;;;;;;4.18;2.00;;;;;;;15.49;52.14;98751.87;5397902;26;20126;-77
2022/05/20 04:16:55;;;;;;;6.15;1.98;;;;;;;15.97;51.50;98761.50;5417076;26;20113;-77
2022/05/20 04:19:22;;;;;;;5.10;2.20;;;;;;;16.08;50.89;98759.19;5437337;26;20384;-77
2022/05/20 04:21:51;;;;;;;5.32;2.50;;;;;;;16.36;48.81;98771.53;5437089;26;20068;-77
2022/05/20 04:24:19;;;;;;;5.72;2.12;;;;;;;16.26;48.59;98791.16;5437242;26;20170;-77
2022/05/20 04:26:46;;;;;;;5.25;2.20;;;;;;;15.72;49.92;98792.31;5437498;26;20063;-77
2022/05/20 04:29:13;;;;;;;5.72;2.25;;;;;;;15.85;50.75;98789.03;5436573;26;20059;-77
2022/05/20 04:31:47;;;;;;;5.85;2.12;;;;;;;16.28;49.78;98801.53;5417009;26;20129;-77
2022/05/20 04:34:14;;;;;;;6.68;2.40;;;;;;;16.33;49.51;98796.91;5417025;26;20458;-77
2022/05/20 04:36:41;;;;;;;4.37;2.00;;;;;;;15.86;51.76;98795.91;5436975;26;20063;-77
2022/05/20 04:39:08;;;;;;;7.70;2.30;;;;;;;16.26;50.65;98793.78;5437144;26;20122;-77
2022/05/20 04:47:15;;;;;;;6.97;2.22;;;;;;;16.11;52.31;98789.41;5437570;26;20094;-77
2022/05/20 04:49:42;;;;;;;7.57;2.35;;;;;;;16.22;53.67;98781.00;5437083;26;20052;-76
2022/05/20 04:52:09;;;;;;;4.95;2.10;;;;;;;16.14;52.89;98771.00;5417274;26;20076;-77
2022/05/20 04:54:55;;;;;;;6.05;2.25;;;;;;;16.20;53.40;98768.09;5438107;26;20094;-78
2022/05/20 04:57:36;;;;;;;6.00;2.20;;;;;;;16.31;54.21;98775.31;5416524;26;20055;-77
2022/05/20 05:00:18;;;;;;;5.50;1.70;;;;;;;16.52;53.19;98775.91;5437194;26;20106;-78
2022/05/20 05:02:46;;;;;;;6.55;2.12;;;;;;;16.40;54.47;98748.78;5436887;26;20082;-77
2022/05/20 05:05:15;;;;;;;7.12;2.28;;;;;;;16.91;51.55;98755.47;5437343;26;20043;-77
2022/05/20 05:07:44;;;;;;;5.97;2.30;;;;;;;16.99;49.74;98761.06;5416859;26;20442;-77
2022/05/20 05:10:13;;;;;;;8.02;2.20;;;;;;;17.58;49.02;98751.50;5436968;26;20058;-77
2022/05/20 05:12:40;;;;;;;5.40;1.92;;;;;;;17.84;46.87;98763.00;5416752;26;20058;-77
2022/05/20 05:15:07;;;;;;;5.62;2.20;;;;;;;17.95;45.51;98757.13;5437231;26;20459;-77
2022/05/20 05:20:22;;;;;;;5.47;2.10;;;;;;;17.86;46.09;98750.72;5437212;26;20059;-77
2022/05/20 05:22:50;;;;;;;3.95;1.95;;;;;;;18.15;45.38;98741.06;5416562;26;20114;-77
2022/05/20 05:25:19;;;;;;;7.50;2.05;;;;;;;17.99;44.75;98745.56;5436809;26;20067;-77
2022/05/20 05:27:46;;;;;;;4.97;2.05;;;;;;;18.47;44.28;98756.47;5437198;26;20429;-77
2022/05/20 05:30:13;;;;;;;6.22;2.33;;;;;;;18.48;44.20;98758.97;5437070;26;20051;-77
2022/05/20 05:32:41;;;;;;;8.25;2.20;;;;;;;18.59;44.45;98755.69;5436647;26;20063;-77
2022/05/20 05:35:11;;;;;;;5.65;2.10;;;;;;;18.81;45.68;98756.94;5437233;26;20122;-77
2022/05/20 05:37:39;;;;;;;8.55;2.28;;;;;;;19.01;46.93;98757.31;5436838;26;20133;-78
2022/05/20 05:40:08;;;;;;;7.60;2.75;;;;;;;18.79;48.12;98768.34;5416651;26;20059;-77
2022/05/20 05:42:36;;;;;;;6.75;2.85;;;;;;;19.35;48.53;98765.53;5437035;26;20102;-77
2022/05/20 05:45:04;;;;;;;5.82;2.30;;;;;;;20.02;47.50;98771.44;5416411;26;20099;-77
2022/05/20 05:47:31;;;;;;;5.57;2.30;;;;;;;20.80;45.23;98771.12;5437134;26;20515;-77
2022/05/20 05:49:59;;;;;;;5.43;2.25;;;;;;;21.96;41.58;98778.12;5436981;26;20071;-77
2022/05/20 05:52:26;;;;;;;5.32;2.20;;;;;;;22.68;39.46;98773.28;5416272;26;20121;-77
2022/05/20 05:54:53;;;;;;;6.05;2.30;;;;;;;24.38;36.53;98777.47;5437193;26;20138;-78
2022/05/20 05:57:20;;;;;;;7.30;2.40;;;;;;;23.85;37.53;98757.41;5416568;26;20055;-78
2022/05/20 05:59:47;;;;;;;4.72;2.17;;;;;;;24.35;36.62;98767.16;5436856;26;20119;-78
2022/05/20 06:02:14;;;;;;;8.05;2.03;;;;;;;25.33;35.49;98764.50;5436726;26;20114;-78
2022/05/20 06:04:41;;;;;;;5.93;2.10;;;;;;;25.32;34.51;98755.75;5436826;26;20055;-78
2022/05/20 06:07:08;;;;;;;5.90;1.98;;;;;;;24.97;33.92;98769.47;5436739;26;20042;-78
2022/05/20 06:09:35;;;;;;;6.30;2.20;;;;;;;24.58;34.44;98765.16;5437164;26;20059;-78
2022/05/20 06:12:03;;;;;;;6.45;2.22;;;;;;;24.12;35.24;98769.97;5436992;26;20070;-78
2022/05/20 06:14:29;;;;;;;5.45;2.30;;;;;;;24.07;36.33;98766.09;5436305;26;20051;-78
2022/05/20 06:16:56;;;;;;;8.90;2.30;;;;;;;23.92;36.23;98771.69;5436988;26;20472;-78
2022/05/20 06:19:23;;;;;;;5.72;2.35;;;;;;;24.13;35.77;98760.25;5436771;26;20059;-78
2022/05/20 06:21:51;;;;;;;5.32;2.30;;;;;;;23.94;35.88;98767.16;5436716;26;20069;-78
2022/05/20 06:24:24;;;;;;;5.10;2.20;;;;;;;23.78;36.14;98774.69;5417614;26;20118;-78
2022/05/20 06:26:51;;;;;;;4.87;2.30;;;;;;;23.62;36.51;98769.91;5436536;26;20043;-78
2022/05/20 06:29:18;;;;;;;6.82;2.30;;;;;;;23.49;37.06;98766.59;5436483;26;20492;-77
2022/05/20 06:31:45;;;;;;;7.37;2.25;;;;;;;23.37;37.45;98770.25;5436828;26;20110;-77
2022/05/20 06:34:12;;;;;;;8.45;2.30;;;;;;;22.91;37.03;98763.53;5436238;26;20457;-77
2022/05/20 06:42:10;;;;;;;6.75;2.20;;;;;;;22.73;37.94;98772.91;5436491;26;20416;-77
2022/05/20 06:44:37;;;;;;;4.93;2.17;;;;;;;23.00;36.19;98772.50;5436724;26;20051;-78
2022/05/20 06:47:04;;;;;;;5.85;2.20;;;;;;;23.02;36.49;98781.91;5436932;26;20106;-74
2022/05/20 06:49:32;;;;;;;5.30;2.00;;;;;;;22.85;37.03;98782.44;5436240;26;20409;-77
2022/05/20 06:52:00;;;;;;;5.12;2.10;;;;;;;23.13;36.63;98778.41;5436821;26;20055;-77
2022/05/20 06:54:47;;;;;;;5.97;2.20;;;;;;;23.31;35.87;98784.78;5436273;26;20047;-77
2022/05/20 06:57:21;;;;;;;6.82;2.42;;;;;;;23.61;36.28;98781.41;5436678;26;20307;-77
2022/05/20 06:59:48;;;;;;;6.85;2.15;;;;;;;24.06;36.03;98777.59;5436726;26;20107;-76
2022/05/20 07:02:15;;;;;;;6.32;2.28;;;;;;;24.14;35.67;98783.88;5436289;26;20456;-77
2022/05/20 07:04:49;;;;;;;5.22;2.20;;;;;;;24.39;36.34;98774.69;5436624;26;20159;-77
2022/05/20 07:07:16;;;;;;;5.35;2.10;;;;;;;24.28;36.77;98781.84;5436687;26;20134;-77
2022/05/20 07:09:43;;;;;;;5.85;2.12;;;;;;;24.23;37.64;98783.06;5436018;26;20075;-77
2022/05/20 07:12:10;;;;;;;5.03;2.05;;;;;;;24.12;37.35;98785.78;5436322;26;20547;-76
2022/05/20 07:14:37;;;;;;;7.22;2.40;;;;;;;24.50;37.57;98790.41;5436594;26;20378;-75
2022/05/20 07:17:04;;;;;;;7.00;2.30;;;;;;;24.65;36.98;98784.72;5437134;26;20098;-76
2022/05/20 07:19:32;;;;;;;5.12;2.22;;;;;;;24.95;37.16;98786.44;5437563;26;20082;-76
2022/05/20 07:21:59;;;;;;;6.45;2.47;;;;;;;25.07;36.36;98786.19;5437380;26;20137;-76
2022/05/20 07:24:26;;;;;;;5.22;2.03;;;;;;;24.89;37.00;98781.72;5436935;26;20095;-76
2022/05/20 07:26:53;;;;;;;7.97;2.37;;;;;;;24.87;37.61;98787.09;5437402;26;20572;-76
2022/05/20 07:29:20;;;;;;;7.43;2.53;;;;;;;25.29;36.50;98787.69;5436692;26;20188;-76
2022/05/20 07:31:47;;;;;;;5.45;2.33;;;;;;;25.18;37.61;98792.28;5437106;26;20094;-77
2022/05/20 07:34:14;;;;;;;7.05;2.35;;;;;;;26.00;36.11;98789.94;5439347;26;20115;-78
2022/05/20 07:36:41;;;;;;;5.10;2.25;;;;;;;26.20;35.85;98794.16;5438773;26;20098;-79
2022/05/20 07:39:08;;;;;;;5.53;2.17;;;;;;;25.98;36.34;98786.59;5436987;26;20075;-79
2022/05/20 07:41:35;;;;;;;5.93;2.30;;;;;;;25.83;36.78;98786.22;5437601;26;20125;-78
2022/05/20 07:44:04;;;;;;;5.45;2.20;;;;;;;25.81;37.02;98795.28;5437133;26;20114;-78
2022/05/20 07:46:31;;;;;;;5.55;2.28;;;;;;;26.08;37.01;98791.88;5437552;26;20043;-78
2022/05/20 07:48:58;;;;;;;6.55;2.42;;;;;;;26.33;37.06;98801.75;5437439;26;20059;-79
2022/05/20 07:51:26;;;;;;;7.87;2.33;;;;;;;26.33;37.65;98795.63;5437278;26;20130;-78
2022/05/20 07:53:59;;;;;;;6.03;2.47;;;;;;;27.11;35.63;98799.50;5437354;26;20122;-79
2022/05/20 07:56:32;;;;;;;10.35;2.60;;;;;;;27.54;33.20;98782.81;5437699;26;20105;-79
2022/05/20 07:59:04;;;;;;;6.35;2.83;;;;;;;27.53;31.69;98785.59;5416647;26;20055;-79
2022/05/20 08:01:33;;;;;;;6.78;2.60;;;;;;;27.63;32.25;98792.44;5437287;26;20362;-78
2022/05/20 08:07:01;;;;;;;8.65;2.50;;;;;;;28.93;31.29;98786.94;5437079;26;20110;-79
2022/05/20 08:09:29;;;;;;;8.13;2.42;;;;;;;29.25;30.03;98775.50;5417059;26;20094;-79
2022/05/20 08:11:57;;;;;;;7.12;2.70;;;;;;;28.25;30.67;98785.19;5437482;26;20401;-79
2022/05/20 08:14:26;;;;;;;7.57;2.70;;;;;;;29.87;28.48;98770.41;5437291;26;20114;-80
2022/05/20 08:16:56;;;;;;;7.80;2.40;;;;;;;30.46;28.46;98792.19;5437452;26;20099;-79
2022/05/20 08:19:23;;;;;;;4.78;2.40;;;;;;;30.78;28.53;98787.72;5436753;26;20134;-80
2022/05/20 08:21:50;;;;;;;4.95;2.60;;;;;;;30.22;28.24;98779.84;5437268;26;20064;-80
2022/05/20 08:24:17;;;;;;;7.37;2.53;;;;;;;30.70;28.04;98775.28;5437278;26;20065;-80
2022/05/20 08:26:46;;;;;;;7.93;2.65;;;;;;;30.33;27.63;98781.28;5436700;26;20058;-80
2022/05/20 08:29:13;;;;;;;5.87;2.50;;;;;;;30.90;27.94;98782.81;5437095;26;20063;-81
2022/05/20 08:31:41;;;;;;;6.28;2.78;;;;;;;31.55;26.94;98771.63;5437594;26;20114;-80
2022/05/20 08:34:08;;;;;;;5.97;2.60;;;;;;;31.65;27.06;98775.69;5416641;26;20047;-80
2022/05/20 08:36:36;;;;;;;7.32;2.70;;;;;;;31.48;27.15;98778.72;5437492;26;20102;-80
2022/05/20 08:39:03;;;;;;;7.05;2.72;;;;;;;31.03;27.58;98778.53;5437350;26;20193;-80
2022/05/20 08:41:37;;;;;;;4.25;2.30;;;;;;;31.19;27.60;98777.59;5397635;26;20098;-80
2022/05/20 08:44:11;;;;;;;6.68;2.60;;;;;;;31.61;26.70;98766.41;5416989;26;20126;-80
2022/05/20 08:46:40;;;;;;;6.57;2.20;;;;;;;31.94;25.82;98763.41;5437648;26;20115;-80
2022/05/20 08:49:13;;;;;;;7.47;2.50;;;;;;;31.87;26.41;98760.66;5436967;26;20112;-78
2022/05/20 08:51:43;;;;;;;6.78;2.45;;;;;;;32.36;25.23;98765.44;5437457;26;20381;-78
2022/05/20 08:54:10;;;;;;;6.18;2.60;;;;;;;31.89;25.82;98760.47;5416524;26;20081;-78
2022/05/20 08:56:38;;;;;;;4.78;2.40;;;;;;;31.64;27.34;98760.69;5437375;26;20445;-80
2022/05/20 08:59:13;;;;;;;8.20;2.37;;;;;;;31.89;27.00;98757.78;5437181;26;20408;-79
2022/05/20 09:01:47;;;;;;;5.10;2.50;;;;;;;31.18;28.00;98748.47;5416418;26;20468;-80
2022/05/20 09:04:18;;;;;;;7.62;2.70;;;;;;;31.84;27.03;98758.34;5437237;26;20116;-80
2022/05/20 09:06:57;;;;;;;7.15;2.50;;;;;;;31.65;27.55;98756.19;5437371;26;20098;-80
2022/05/20 09:09:27;;;;;;;6.05;2.47;;;;;;;32.73;27.32;98750.19;5436802;26;20070;-81
2022/05/20 09:11:57;;;;;;;5.78;2.50;;;;;;;32.57;26.85;98748.63;5437420;26;20055;-81
2022/05/20 09:17:14;;;;;;;5.60;2.40;;;;;;;31.80;27.06;98735.72;5437069;26;20409;-81
2022/05/20 09:20:05;;;;;;;4.85;2.30;;;;;;;32.64;26.33;98741.47;5437315;26;20659;-81
2022/05/20 09:22:37;;;;;;;7.72;2.80;;;;;;;33.08;25.78;98737.84;5436808;26;20132;-81
2022/05/20 09:25:20;;;;;;;5.15;2.28;;;;;;;33.44;25.74;98737.72;5416903;26;20112;-80
2022/05/20 09:27:50;;;;;;;7.68;2.70;;;;;;;32.94;26.08;98736.88;5437213;26;20048;-81
2022/05/20 09:30:23;;;;;;;7.68;2.30;;;;;;;33.48;25.63;98738.16;5416473;26;20079;-81
2022/05/20 09:33:22;;;;;;;6.55;2.60;;;;;;;34.03;24.37;98729.28;5437327;26;20085;-81
2022/05/20 09:35:56;;;;;;;4.87;2.55;;;;;;;33.44;26.10;98729.72;5416637;26;20078;-81
2022/05/20 09:38:35;;;;;;;6.62;2.65;;;;;;;34.13;25.65;98734.22;5416283;26;20102;-80
2022/05/20 09:41:16;;;;;;;6.10;2.80;;;;;;;34.17;25.96;98730.13;5437354;26;20107;-81
2022/05/20 09:43:48;;;;;;;6.40;2.87;;;;;;;34.30;26.45;98732.03;5417544;26;20059;-80
2022/05/20 09:46:41;;;;;;;5.03;2.70;;;;;;;33.41;27.15;98726.59;5414968;26;20400;-80
2022/05/20 09:49:35;;;;;;;7.43;2.80;;;;;;;32.59;27.99;98730.53;5434353;26;20067;-80
2022/05/20 09:52:18;;;;;;;6.87;3.00;;;;;;;32.87;27.64;98719.16;5435062;26;20405;-81
2022/05/20 09:54:48;;;;;;;9.25;2.47;;;;;;;33.64;26.54;98719.97;5436434;26;20104;-81
2022/05/20 09:57:26;;;;;;;6.10;2.55;;;;;;;33.97;26.36;98719.34;5435828;26;20126;-80
2022/05/20 10:00:07;;;;;;;4.62;2.50;;;;;;;34.33;26.32;98724.41;5414755;26;20075;-80
2022/05/20 10:02:59;;;;;;;7.47;2.80;;;;;;;34.05;26.51;98708.47;5415809;26;20075;-81
2022/05/20 10:05:36;;;;;;;5.93;2.53;;;;;;;33.27;28.38;98704.22;5415617;26;20067;-80
2022/05/20 10:08:11;;;;;;;6.87;2.58;;;;;;;32.58;29.48;98701.34;5396662;26;20468;-80
2022/05/20 10:11:12;;;;;;;5.18;2.67;;;;;;;32.91;28.53;98707.88;5435547;26;20109;-81
2022/05/20 10:13:46;;;;;;;6.97;2.95;;;;;;;31.63;30.33;98696.88;5436017;26;20119;-81
2022/05/20 10:16:21;;;;;;;4.37;2.70;;;;;;;31.65;30.20;98705.50;5417412;26;20054;-80
2022/05/20 10:19:28;;;;;;;6.22;2.75;;;;;;;31.98;29.96;98705.16;5416492;26;20050;-80
2022/05/20 10:21:58;;;;;;;4.70;2.47;;;;;;;31.25;30.76;98701.41;5423087;26;20449;-80
2022/05/20 10:24:37;;;;;;;3.45;2.22;;;;;;;31.33;30.91;98696.84;5436290;26;20103;-80
2022/05/20 10:27:18;;;;;;;6.03;2.47;;;;;;;32.30;29.21;98699.41;5435770;26;20104;-80
2022/05/20 10:33:07;;;;;;;6.95;2.35;;;;;;;32.69;28.62;98700.84;5418205;26;20075;-80
2022/05/20 10:35:45;;;;;;;7.85;2.72;;;;;;;32.29;29.43;98702.25;5436185;26;20129;-81
2022/05/20 10:38:28;;;;;;;7.43;2.60;;;;;;;32.56;28.98;98696.22;5435891;26;20079;-81
2022/05/20 10:41:04;;;;;;;10.18;3.33;;;;;;;32.38;29.86;98693.13;5414269;26;20102;-78
2022/05/20 10:50:15;;;;;;;5.37;2.47;;;;;;;32.02;29.50;98693.94;5417883;26;20118;-80
2022/05/20 10:53:04;;;;;;;6.12;2.60;;;;;;;33.17;28.74;98690.37;5436445;26;20114;-80
2022/05/20 10:56:07;;;;;;;4.45;2.10;;;;;;;33.01;28.70;98684.31;5436803;26;20106;-80
2022/05/20 10:58:57;;;;;;;6.22;2.37;;;;;;;33.47;29.36;98685.69;5415704;26;20071;-80
2022/05/20 11:02:08;;;;;;;8.93;2.42;;;;;;;32.89;27.92;98682.34;5435824;26;20059;-80
2022/05/20 11:05:02;;;;;;;6.05;2.58;;;;;;;31.56;29.48;98670.09;5365744;26;20070;-80
2022/05/20 11:07:48;;;;;;;6.25;2.40;;;;;;;31.91;28.85;98670.41;5346931;26;20083;-80
2022/05/20 11:10:38;;;;;;;6.87;2.47;;;;;;;32.19;29.18;98670.50;5421036;26;20058;-81
2022/05/20 11:13:34;;;;;;;10.65;3.15;;;;;;;33.05;27.77;98661.50;5437009;26;20167;-79
2022/05/20 11:16:20;;;;;;;5.90;2.62;;;;;;;32.19;29.85;98662.50;5436653;26;20098;-80
2022/05/20 11:19:11;;;;;;;5.12;2.55;;;;;;;31.79;31.54;98656.69;5415852;26;20051;-80
2022/05/20 11:21:56;;;;;;;8.85;2.67;;;;;;;30.31;33.72;98652.84;5435729;26;20116;-81
2022/05/20 11:25:02;;;;;;;18.33;3.40;;;;;;;31.54;31.41;98658.78;5416022;26;20377;-80
2022/05/20 11:27:58;;;;;;;5.82;2.42;;;;;;;31.52;31.57;98655.47;5365444;26;20525;-80
2022/05/20 11:30:34;;;;;;;5.72;2.60;;;;;;;31.99;31.58;98659.59;5435221;26;20377;-80
2022/05/20 11:33:10;;;;;;;6.65;2.65;;;;;;;32.36;29.87;98655.94;5436908;26;20075;-77
2022/05/20 11:35:59;;;;;;;4.95;2.55;;;;;;;33.31;27.90;98644.84;5436604;26;20099;-78
2022/05/20 11:38:26;;;;;;;6.95;2.80;;;;;;;33.52;28.02;98656.50;5436099;26;20103;-78
2022/05/20 11:41:19;;;;;;;6.10;2.60;;;;;;;33.68;26.78;98653.50;5435706;26;20098;-78
2022/05/20 11:44:23;;;;;;;9.48;2.80;;;;;;;33.98;27.55;98648.72;5436506;26;20103;-78
2022/05/20 11:47:27;;;;;;;6.47;2.53;;;;;;;33.60;26.85;98649.16;5437055;26;20071;-77
2022/05/20 11:50:22;;;;;;;6.25;2.62;;;;;;;34.58;26.13;98639.00;5435327;26;20120;-78
2022/05/20 11:53:08;;;;;;;7.20;2.70;;;;;;;35.21;25.40;98638.59;5437166;26;20047;-77
2022/05/20 11:55:41;;;;;;;6.22;2.80;;;;;;;34.06;28.50;98639.69;5437043;26;20464;-77
2022/05/20 11:58:19;;;;;;;4.93;2.45;;;;;;;33.48;30.34;98637.34;5415109;26;20073;-77
2022/05/20 12:00:48;;;;;;;8.43;2.85;;;;;;;33.40;29.28;98639.38;5435270;26;20448;-77
2022/05/20 12:03:22;;;;;;;12.27;3.00;;;;;;;33.44;28.97;98638.75;5436609;26;20376;-77
2022/05/20 12:05:50;;;;;;;6.00;2.50;;;;;;;33.75;28.84;98635.63;5416027;26;20107;-77
2022/05/20 12:08:44;;;;;;;6.03;2.70;;;;;;;34.21;27.33;98633.12;5415725;26;20121;-77
2022/05/20 12:11:38;;;;;;;5.87;2.60;;;;;;;34.21;28.38;98637.66;5435787;26;20133;-77
2022/05/20 12:14:05;;;;;;;8.63;3.25;;;;;;;34.07;28.55;98635.97;5412489;26;20114;-77
2022/05/20 12:16:34;;;;;;;5.40;2.80;;;;;;;34.17;29.43;98631.06;5436763;26;20314;-77
2022/05/20 12:24:53;;;;;;;9.45;3.15;;;;;;;33.36;28.19;98618.34;5436210;26;20059;-77
2022/05/20 12:27:23;;;;;;;5.12;2.58;;;;;;;32.89;29.47;98605.69;5436736;26;20069;-77
2022/05/20 12:30:10;;;;;;;6.97;2.80;;;;;;;31.65;32.37;98593.47;5435339;26;20086;-77
2022/05/20 12:32:37;;;;;;;4.80;2.50;;;;;;;31.75;32.55;98625.22;5415556;26;20115;-77
2022/05/20 12:35:04;;;;;;;8.15;2.90;;;;;;;31.82;32.03;98626.97;5436536;26;20333;-77
2022/05/20 12:37:40;;;;;;;5.87;2.55;;;;;;;31.08;34.31;98620.78;5436213;26;20448;-76
2022/05/20 12:40:24;;;;;;;6.00;2.90;;;;;;;30.92;34.51;98631.59;5435145;26;20103;-76
2022/05/20 12:42:56;;;;;;;7.18;2.70;;;;;;;30.62;33.33;98641.28;5436787;26;20043;-77